createdAt,value
2019-04-06T00:00:59.138Z,0.00
2019-04-06T00:01:59.092Z,0.00
2019-04-06T00:02:59.088Z,0.00
2019-04-06T00:03:59.073Z,0.00
2019-04-06T00:04:59.059Z,0.00
2019-04-06T00:05:59.056Z,0.00
2019-04-06T00:06:59.053Z,0.00
2019-04-06T00:07:59.056Z,0.00
2019-04-06T00:08:59.014Z,0.00
2019-04-06T00:09:59.007Z,0.00
2019-04-06T00:10:58.999Z,0.00
2019-04-06T00:11:58.984Z,0.00
2019-04-06T00:12:59.043Z,0.00
2019-04-06T00:13:59.005Z,0.00
2019-04-06T00:14:58.950Z,0.00
2019-04-06T00:15:58.940Z,0.00
2019-04-06T00:16:58.934Z,0.00
2019-04-06T00:17:58.919Z,0.00
2019-04-06T00:18:58.973Z,0.00
2019-04-06T00:19:58.899Z,0.00
2019-04-06T00:20:58.887Z,0.00
2019-04-06T00:21:58.876Z,0.00
2019-04-06T00:22:58.866Z,0.00
2019-04-06T00:23:58.867Z,0.00
2019-04-06T00:24:58.860Z,0.00
2019-04-06T00:25:58.845Z,0.00
2019-04-06T00:26:58.824Z,0.00
2019-04-06T00:27:58.812Z,0.00
2019-04-06T00:28:58.803Z,0.00
2019-04-06T00:29:58.820Z,0.00
2019-04-06T00:30:58.793Z,0.00
2019-04-06T00:31:58.772Z,0.00
2019-04-06T00:32:58.768Z,0.00
2019-04-06T00:33:58.749Z,0.00
2019-04-06T00:34:58.736Z,0.00
2019-04-06T00:35:58.726Z,0.00
2019-04-06T00:36:58.729Z,0.00
2019-04-06T00:37:58.711Z,0.00
2019-04-06T00:38:58.698Z,0.00
2019-04-06T00:39:58.685Z,0.00
2019-04-06T00:40:58.676Z,0.00
2019-04-06T00:41:58.667Z,0.00
2019-04-06T00:42:58.674Z,0.00
2019-04-06T00:43:58.643Z,0.00
2019-04-06T00:44:58.633Z,0.00
2019-04-06T00:45:58.629Z,0.00
2019-04-06T00:46:58.611Z,0.00
2019-04-06T00:47:58.602Z,0.00
2019-04-06T00:48:58.605Z,0.00
2019-04-06T00:49:58.579Z,0.00
2019-04-06T00:50:58.610Z,0.00
2019-04-06T00:51:58.560Z,0.00
2019-04-06T00:52:58.547Z,0.00
2019-04-06T00:53:58.537Z,0.00
2019-04-06T00:54:58.547Z,0.00
2019-04-06T00:55:58.512Z,0.00
2019-04-06T00:56:58.502Z,0.00
2019-04-06T00:57:58.495Z,0.00
2019-04-06T00:58:58.484Z,0.00
2019-04-06T00:59:58.475Z,0.00
2019-04-06T01:00:58.488Z,0.00
2019-04-06T01:01:58.452Z,0.00
2019-04-06T01:02:58.442Z,0.00
2019-04-06T01:03:58.433Z,0.00
2019-04-06T01:04:58.420Z,0.00
2019-04-06T01:05:58.410Z,0.00
2019-04-06T01:06:58.417Z,0.00
2019-04-06T01:07:58.396Z,0.00
2019-04-06T01:08:58.379Z,0.00
2019-04-06T01:09:58.369Z,0.00
2019-04-06T01:10:58.396Z,0.00
2019-04-06T01:11:58.348Z,0.00
2019-04-06T01:12:58.353Z,0.00
2019-04-06T01:13:58.392Z,0.00
2019-04-06T01:14:58.331Z,0.00
2019-04-06T01:15:58.305Z,0.00
2019-04-06T01:16:58.340Z,0.00
2019-04-06T01:17:58.283Z,0.00
2019-04-06T01:18:58.287Z,0.00
2019-04-06T01:19:58.269Z,0.00
2019-04-06T01:20:58.255Z,0.00
2019-04-06T01:21:58.242Z,0.00
2019-04-06T01:22:58.233Z,0.00
2019-04-06T01:23:58.223Z,0.00
2019-04-06T01:24:58.229Z,0.00
2019-04-06T01:26:06.625Z,0.00
2019-04-06T01:26:59.193Z,0.00
2019-04-06T01:27:58.177Z,0.00
2019-04-06T01:28:58.165Z,0.00
2019-04-06T01:29:58.209Z,0.00
2019-04-06T01:30:58.181Z,0.00
2019-04-06T01:31:58.159Z,0.00
2019-04-06T01:32:58.126Z,0.00
2019-04-06T01:33:59.158Z,0.00
2019-04-06T01:34:58.117Z,0.00
2019-04-06T01:35:58.091Z,0.00
2019-04-06T01:36:58.155Z,0.00
2019-04-06T01:37:58.078Z,0.00
2019-04-06T01:38:58.061Z,0.00
2019-04-06T01:39:58.069Z,0.00
2019-04-06T01:40:58.045Z,0.00
2019-04-06T01:41:58.035Z,0.00
2019-04-06T01:42:58.118Z,0.00
2019-04-06T01:43:58.010Z,0.00
2019-04-06T01:44:58.007Z,0.00
2019-04-06T01:45:57.988Z,0.00
2019-04-06T01:46:57.978Z,0.00
2019-04-06T01:47:57.969Z,0.00
2019-04-06T01:48:57.975Z,0.00
2019-04-06T01:49:57.948Z,0.00
2019-04-06T01:50:57.962Z,0.00
2019-04-06T01:51:57.926Z,0.00
2019-04-06T01:52:57.937Z,0.00
2019-04-06T01:53:57.925Z,0.00
2019-04-06T01:54:59.116Z,0.00
2019-04-06T01:55:57.884Z,0.00
2019-04-06T01:56:57.881Z,0.00
2019-04-06T01:57:57.864Z,0.00
2019-04-06T01:58:57.851Z,0.00
2019-04-06T01:59:57.843Z,0.00
2019-04-06T02:00:57.849Z,0.00
2019-04-06T02:01:57.821Z,0.00
2019-04-06T02:02:57.810Z,0.00
2019-04-06T02:03:57.800Z,0.00
2019-04-06T02:04:57.791Z,0.00
2019-04-06T02:05:57.777Z,0.00
2019-04-06T02:06:57.782Z,0.00
2019-04-06T02:07:57.760Z,0.00
2019-04-06T02:08:57.746Z,0.00
2019-04-06T02:09:57.744Z,0.00
2019-04-06T02:10:57.726Z,0.00
2019-04-06T02:11:57.717Z,0.00
2019-04-06T02:12:57.860Z,0.00
2019-04-06T02:13:57.694Z,0.00
2019-04-06T02:14:57.686Z,0.00
2019-04-06T02:15:57.671Z,0.00
2019-04-06T02:16:57.677Z,0.00
2019-04-06T02:17:57.653Z,0.00
2019-04-06T02:18:57.658Z,0.00
2019-04-06T02:19:57.629Z,0.00
2019-04-06T02:20:57.620Z,0.00
2019-04-06T02:21:57.613Z,0.00
2019-04-06T02:22:57.598Z,0.00
2019-04-06T02:23:57.588Z,0.00
2019-04-06T02:24:57.735Z,0.00
2019-04-06T02:25:57.568Z,0.00
2019-04-06T02:26:57.574Z,0.00
2019-04-06T02:27:57.543Z,0.00
2019-04-06T02:28:57.564Z,0.00
2019-04-06T02:29:57.531Z,0.00
2019-04-06T02:30:57.592Z,0.00
2019-04-06T02:31:57.509Z,0.00
2019-04-06T02:32:57.500Z,0.00
2019-04-06T02:33:57.486Z,0.00
2019-04-06T02:34:57.475Z,0.00
2019-04-06T02:35:57.625Z,0.00
2019-04-06T02:36:57.486Z,0.00
2019-04-06T02:37:57.474Z,0.00
2019-04-06T02:38:57.444Z,0.00
2019-04-06T02:39:57.420Z,0.00
2019-04-06T02:40:57.467Z,0.00
2019-04-06T02:41:57.576Z,0.00
2019-04-06T02:42:57.409Z,0.00
2019-04-06T02:43:57.380Z,0.00
2019-04-06T02:44:57.372Z,0.00
2019-04-06T02:45:57.365Z,0.00
2019-04-06T02:46:57.503Z,0.00
2019-04-06T02:47:57.339Z,0.00
2019-04-06T02:48:57.361Z,0.00
2019-04-06T02:49:57.326Z,0.00
2019-04-06T02:50:57.477Z,0.00
2019-04-06T02:51:57.297Z,0.00
2019-04-06T02:52:57.286Z,0.00
2019-04-06T02:53:57.272Z,0.00
2019-04-06T02:54:57.344Z,0.00
2019-04-06T02:55:57.254Z,0.00
2019-04-06T02:56:57.241Z,0.00
2019-04-06T02:57:57.326Z,0.00
2019-04-06T02:58:57.222Z,0.00
2019-04-06T02:59:57.267Z,0.00
2019-04-06T03:00:57.219Z,0.00
2019-04-06T03:01:57.444Z,0.00
2019-04-06T03:02:57.180Z,0.00
2019-04-06T03:03:57.170Z,0.00
2019-04-06T03:04:57.170Z,0.00
2019-04-06T03:05:57.224Z,0.00
2019-04-06T03:06:57.154Z,0.00
2019-04-06T03:07:57.131Z,0.00
2019-04-06T03:08:57.143Z,0.00
2019-04-06T03:09:57.108Z,0.00
2019-04-06T03:10:57.099Z,0.00
2019-04-06T03:11:57.274Z,0.00
2019-04-06T03:12:57.132Z,0.00
2019-04-06T03:13:57.065Z,0.00
2019-04-06T03:14:57.057Z,0.00
2019-04-06T03:15:57.045Z,0.00
2019-04-06T03:16:57.044Z,0.00
2019-04-06T03:17:57.023Z,0.00
2019-04-06T03:18:57.029Z,0.00
2019-04-06T03:19:57.024Z,0.00
2019-04-06T03:20:56.990Z,0.00
2019-04-06T03:21:56.988Z,0.00
2019-04-06T03:22:56.974Z,0.00
2019-04-06T03:23:57.035Z,0.00
2019-04-06T03:24:57.006Z,0.00
2019-04-06T03:25:56.943Z,0.00
2019-04-06T03:27:02.250Z,0.00
2019-04-06T03:29:06.809Z,0.00
2019-04-06T03:30:06.999Z,0.00
2019-04-06T03:31:06.818Z,0.00
2019-04-06T03:32:07.179Z,0.00
2019-04-06T03:33:06.765Z,0.00
2019-04-06T03:34:06.781Z,0.00
2019-04-06T03:35:06.836Z,0.00
2019-04-06T03:36:06.757Z,0.00
2019-04-06T03:37:06.719Z,0.00
2019-04-06T03:38:06.716Z,0.00
2019-04-06T03:39:06.705Z,0.00
2019-04-06T03:40:06.841Z,0.00
2019-04-06T03:41:06.713Z,0.00
2019-04-06T03:42:06.739Z,0.00
2019-04-06T03:43:06.672Z,0.00
2019-04-06T03:44:06.656Z,0.00
2019-04-06T03:45:06.645Z,0.00
2019-04-06T03:46:06.637Z,0.00
2019-04-06T03:47:06.620Z,0.00
2019-04-06T03:48:06.629Z,0.00
2019-04-06T03:49:06.601Z,0.00
2019-04-06T03:50:06.594Z,0.00
2019-04-06T03:51:06.577Z,0.00
2019-04-06T03:52:06.579Z,0.00
2019-04-06T03:53:06.573Z,0.00
2019-04-06T03:54:06.585Z,0.00
2019-04-06T03:55:06.549Z,0.00
2019-04-06T03:56:06.683Z,0.00
2019-04-06T03:57:14.601Z,0.00
2019-04-06T03:58:07.509Z,0.00
2019-04-06T03:59:06.575Z,0.00
2019-04-06T04:00:06.525Z,0.00
2019-04-06T04:01:06.495Z,0.00
2019-04-06T04:02:06.474Z,0.00
2019-04-06T04:03:06.452Z,0.00
2019-04-06T04:04:06.654Z,0.00
2019-04-06T04:05:06.440Z,0.00
2019-04-06T04:06:06.446Z,0.00
2019-04-06T04:07:06.421Z,0.00
2019-04-06T04:08:06.442Z,0.00
2019-04-06T04:09:06.396Z,0.00
2019-04-06T04:10:06.388Z,0.00
2019-04-06T04:11:06.395Z,0.00
2019-04-06T04:12:06.412Z,0.00
2019-04-06T04:13:06.359Z,0.00
2019-04-06T04:14:06.345Z,0.00
2019-04-06T04:15:06.337Z,0.00
2019-04-06T04:16:06.331Z,0.00
2019-04-06T04:17:06.317Z,0.00
2019-04-06T04:18:06.320Z,0.00
2019-04-06T04:19:06.290Z,0.00
2019-04-06T04:20:06.636Z,0.00
2019-04-06T04:21:06.293Z,0.00
2019-04-06T04:22:06.268Z,0.00
2019-04-06T04:23:06.249Z,0.00
2019-04-06T04:24:06.261Z,0.00
2019-04-06T04:25:06.231Z,0.00
2019-04-06T04:26:06.222Z,0.00
2019-04-06T04:27:06.381Z,0.00
2019-04-06T04:28:06.198Z,0.00
2019-04-06T04:29:06.214Z,0.00
2019-04-06T04:30:06.190Z,0.00
2019-04-06T04:31:06.167Z,0.00
2019-04-06T04:32:06.158Z,0.00
2019-04-06T04:33:06.153Z,0.00
2019-04-06T04:34:06.142Z,0.00
2019-04-06T04:35:06.316Z,0.00
2019-04-06T04:36:06.132Z,0.00
2019-04-06T04:37:06.107Z,0.00
2019-04-06T04:38:06.136Z,0.00
2019-04-06T04:39:06.088Z,0.00
2019-04-06T04:40:06.076Z,0.00
2019-04-06T04:41:06.065Z,0.00
2019-04-06T04:42:06.079Z,0.00
2019-04-06T04:43:06.040Z,0.00
2019-04-06T04:44:06.033Z,0.00
2019-04-06T04:45:06.074Z,0.00
2019-04-06T04:46:06.018Z,5.62
2019-04-06T04:47:06.183Z,5.62
2019-04-06T04:48:06.011Z,5.62
2019-04-06T04:49:06.175Z,5.62
2019-04-06T04:50:05.969Z,11.25
2019-04-06T04:51:05.975Z,11.25
2019-04-06T04:52:05.956Z,11.25
2019-04-06T04:53:05.941Z,16.88
2019-04-06T04:54:05.952Z,16.88
2019-04-06T04:55:05.922Z,16.88
2019-04-06T04:56:05.916Z,22.50
2019-04-06T04:57:06.057Z,22.50
2019-04-06T04:58:05.889Z,22.50
2019-04-06T04:59:05.874Z,22.50
2019-04-06T05:00:05.918Z,28.12
2019-04-06T05:01:05.863Z,28.12
2019-04-06T05:02:05.883Z,28.12
2019-04-06T05:03:05.839Z,28.12
2019-04-06T05:04:05.852Z,33.75
2019-04-06T05:05:05.822Z,33.75
2019-04-06T05:06:05.910Z,39.38
2019-04-06T05:07:05.807Z,39.38
2019-04-06T05:08:05.799Z,45.00
2019-04-06T05:09:05.925Z,45.00
2019-04-06T05:10:05.784Z,50.62
2019-04-06T05:11:05.767Z,50.62
2019-04-06T05:12:05.808Z,56.25
2019-04-06T05:13:05.739Z,56.25
2019-04-06T05:14:05.745Z,61.88
2019-04-06T05:15:05.721Z,67.50
2019-04-06T05:16:05.730Z,67.50
2019-04-06T05:17:05.693Z,73.12
2019-04-06T05:18:05.767Z,73.12
2019-04-06T05:19:05.768Z,73.12
2019-04-06T05:20:05.659Z,73.12
2019-04-06T05:21:05.649Z,78.75
2019-04-06T05:22:05.647Z,84.38
2019-04-06T05:23:05.630Z,84.38
2019-04-06T05:24:05.637Z,90.00
2019-04-06T05:25:05.655Z,95.62
2019-04-06T05:26:05.598Z,101.25
2019-04-06T05:27:05.592Z,101.25
2019-04-06T05:28:05.589Z,112.50
2019-04-06T05:29:05.694Z,112.50
2019-04-06T05:30:05.582Z,123.75
2019-04-06T05:31:05.672Z,135.00
2019-04-06T05:32:05.537Z,174.38
2019-04-06T05:33:05.576Z,230.62
2019-04-06T05:34:05.525Z,281.25
2019-04-06T05:35:05.508Z,281.25
2019-04-06T05:36:05.515Z,309.38
2019-04-06T05:37:05.484Z,225.00
2019-04-06T05:38:05.475Z,146.25
2019-04-06T05:39:05.465Z,135.00
2019-04-06T05:40:05.454Z,135.00
2019-04-06T05:41:05.442Z,135.00
2019-04-06T05:42:05.448Z,135.00
2019-04-06T05:43:05.585Z,135.00
2019-04-06T05:44:05.413Z,140.62
2019-04-06T05:45:05.401Z,140.62
2019-04-06T05:46:05.392Z,146.25
2019-04-06T05:47:05.378Z,146.25
2019-04-06T05:48:05.378Z,151.88
2019-04-06T05:49:05.399Z,151.88
2019-04-06T05:50:05.363Z,157.50
2019-04-06T05:51:05.340Z,157.50
2019-04-06T05:52:05.334Z,157.50
2019-04-06T05:53:05.393Z,163.12
2019-04-06T05:54:05.444Z,163.12
2019-04-06T05:55:05.298Z,168.75
2019-04-06T05:56:05.288Z,180.00
2019-04-06T05:57:05.279Z,191.25
2019-04-06T05:58:09.687Z,196.88
2019-04-06T05:59:08.249Z,208.12
2019-04-06T06:00:05.254Z,213.75
2019-04-06T06:01:05.243Z,213.75
2019-04-06T06:02:05.230Z,219.38
2019-04-06T06:03:05.221Z,230.62
2019-04-06T06:04:05.204Z,247.50
2019-04-06T06:05:05.204Z,270.00
2019-04-06T06:06:05.185Z,309.38
2019-04-06T06:07:05.172Z,337.50
2019-04-06T06:08:05.159Z,343.12
2019-04-06T06:09:05.498Z,343.12
2019-04-06T06:10:05.140Z,354.38
2019-04-06T06:11:05.147Z,354.38
2019-04-06T06:12:05.121Z,354.38
2019-04-06T06:13:05.156Z,348.75
2019-04-06T06:14:05.098Z,354.38
2019-04-06T06:15:05.200Z,365.62
2019-04-06T06:16:05.078Z,376.88
2019-04-06T06:17:05.086Z,405.00
2019-04-06T06:18:05.157Z,410.62
2019-04-06T06:19:05.119Z,393.75
2019-04-06T06:20:05.036Z,393.75
2019-04-06T06:21:05.033Z,416.25
2019-04-06T06:22:05.016Z,421.88
2019-04-06T06:23:05.020Z,444.38
2019-04-06T06:24:05.005Z,461.25
2019-04-06T06:25:05.017Z,455.62
2019-04-06T06:26:04.997Z,461.25
2019-04-06T06:27:04.966Z,472.50
2019-04-06T06:28:13.856Z,489.38
2019-04-06T06:29:05.965Z,500.62
2019-04-06T06:30:04.941Z,528.75
2019-04-06T06:31:04.920Z,523.12
2019-04-06T06:32:04.933Z,534.38
2019-04-06T06:33:04.904Z,511.88
2019-04-06T06:34:04.888Z,528.75
2019-04-06T06:35:04.895Z,517.50
2019-04-06T06:36:04.868Z,545.62
2019-04-06T06:37:04.883Z,618.75
2019-04-06T06:38:04.929Z,646.88
2019-04-06T06:39:05.012Z,658.12
2019-04-06T06:40:04.824Z,630.00
2019-04-06T06:41:04.826Z,663.75
2019-04-06T06:42:04.804Z,731.25
2019-04-06T06:43:04.792Z,652.50
2019-04-06T06:44:04.795Z,770.62
2019-04-06T06:45:04.785Z,748.12
2019-04-06T06:46:04.766Z,742.50
2019-04-06T06:47:04.774Z,703.12
2019-04-06T06:48:04.740Z,652.50
2019-04-06T06:49:04.731Z,590.62
2019-04-06T06:50:04.744Z,579.38
2019-04-06T06:51:04.727Z,573.75
2019-04-06T06:52:04.703Z,579.38
2019-04-06T06:53:04.833Z,596.25
2019-04-06T06:54:04.680Z,601.88
2019-04-06T06:55:04.714Z,607.50
2019-04-06T06:56:04.659Z,613.12
2019-04-06T06:57:04.662Z,613.12
2019-04-06T06:58:04.637Z,618.75
2019-04-06T07:01:00.448Z,652.50
2019-04-06T07:02:00.432Z,658.12
2019-04-06T07:03:00.449Z,646.88
2019-04-06T07:04:00.410Z,646.88
2019-04-06T07:05:00.397Z,663.75
2019-04-06T07:06:00.381Z,680.62
2019-04-06T07:07:00.479Z,680.62
2019-04-06T07:08:00.362Z,658.12
2019-04-06T07:09:00.513Z,658.12
2019-04-06T07:10:07.609Z,686.25
2019-04-06T07:11:00.334Z,697.50
2019-04-06T07:12:00.320Z,725.62
2019-04-06T07:13:00.553Z,731.25
2019-04-06T07:14:00.352Z,725.62
2019-04-06T07:15:00.283Z,731.25
2019-04-06T07:16:00.274Z,731.25
2019-04-06T07:17:00.266Z,731.25
2019-04-06T07:18:00.251Z,736.88
2019-04-06T07:19:00.254Z,736.88
2019-04-06T07:20:00.225Z,748.12
2019-04-06T07:21:00.460Z,759.38
2019-04-06T07:22:00.211Z,781.88
2019-04-06T07:23:00.187Z,798.75
2019-04-06T07:24:00.184Z,804.38
2019-04-06T07:25:00.396Z,798.75
2019-04-06T07:26:00.278Z,815.62
2019-04-06T07:27:00.149Z,826.88
2019-04-06T07:28:00.144Z,843.75
2019-04-06T07:29:00.143Z,849.38
2019-04-06T07:30:00.118Z,843.75
2019-04-06T07:31:00.122Z,855.00
2019-04-06T07:32:00.097Z,877.50
2019-04-06T07:33:00.183Z,900.00
2019-04-06T07:34:00.074Z,911.25
2019-04-06T07:35:00.180Z,933.75
2019-04-06T07:36:00.197Z,984.38
2019-04-06T07:37:00.059Z,995.62
2019-04-06T07:38:00.029Z,990.00
2019-04-06T07:39:00.020Z,1001.25
2019-04-06T07:40:00.098Z,978.75
2019-04-06T07:41:01.244Z,1012.50
2019-04-06T07:42:00.975Z,1012.50
2019-04-06T07:43:00.654Z,1006.88
2019-04-06T07:43:59.965Z,1023.75
2019-04-06T07:45:00.077Z,1012.50
2019-04-06T07:45:59.943Z,1001.25
2019-04-06T07:46:59.933Z,1063.12
2019-04-06T07:47:59.924Z,1051.88
2019-04-06T07:49:08.378Z,1074.38
2019-04-06T07:50:00.898Z,1147.50
2019-04-06T07:50:59.892Z,1147.50
2019-04-06T07:51:59.883Z,1175.62
2019-04-06T07:52:59.871Z,1220.62
2019-04-06T07:53:59.856Z,1198.12
2019-04-06T07:55:00.049Z,1181.25
2019-04-06T07:55:59.839Z,1113.75
2019-04-06T07:56:59.992Z,1102.50
2019-04-06T07:57:59.817Z,1074.38
2019-04-06T07:58:59.801Z,1051.88
2019-04-06T07:59:59.798Z,1057.50
2019-04-06T08:00:59.795Z,1074.38
2019-04-06T08:01:59.778Z,1012.50
2019-04-06T08:02:59.764Z,995.62
2019-04-06T08:03:59.750Z,990.00
2019-04-06T08:04:59.737Z,995.62
2019-04-06T08:05:59.729Z,995.62
2019-04-06T08:06:59.727Z,995.62
2019-04-06T08:07:59.726Z,1006.88
2019-04-06T08:08:59.694Z,1018.12
2019-04-06T08:09:59.897Z,1029.38
2019-04-06T08:10:59.672Z,1046.25
2019-04-06T08:11:59.658Z,1029.38
2019-04-06T08:12:59.664Z,1057.50
2019-04-06T08:13:59.639Z,1102.50
2019-04-06T08:14:59.625Z,1113.75
2019-04-06T08:15:59.845Z,1113.75
2019-04-06T08:16:59.718Z,1125.00
2019-04-06T08:18:00.272Z,1119.38
2019-04-06T08:18:59.720Z,1203.75
2019-04-06T08:19:59.572Z,1237.50
2019-04-06T08:20:59.560Z,1186.88
2019-04-06T08:21:59.558Z,1141.88
2019-04-06T08:22:59.542Z,1130.62
2019-04-06T08:23:59.528Z,1192.50
2019-04-06T08:24:59.532Z,1215.00
2019-04-06T08:25:59.507Z,1237.50
2019-04-06T08:26:59.493Z,1147.50
2019-04-06T08:27:59.647Z,1108.12
2019-04-06T08:29:02.226Z,1108.12
2019-04-06T08:29:59.461Z,1175.62
2019-04-06T08:30:59.473Z,1220.62
2019-04-06T08:31:59.475Z,1186.88
2019-04-06T08:32:59.503Z,1243.12
2019-04-06T08:33:59.458Z,1192.50
2019-04-06T08:34:59.406Z,1181.25
2019-04-06T08:35:59.397Z,1170.00
2019-04-06T08:36:59.407Z,1203.75
2019-04-06T08:37:59.375Z,1254.38
2019-04-06T08:38:59.361Z,1243.12
2019-04-06T08:39:59.361Z,1164.38
2019-04-06T08:40:59.343Z,1158.75
2019-04-06T08:41:59.333Z,1237.50
2019-04-06T08:42:59.339Z,1198.12
2019-04-06T08:43:59.311Z,1237.50
2019-04-06T08:44:59.298Z,1215.00
2019-04-06T08:45:59.286Z,1333.12
2019-04-06T08:46:59.278Z,1383.75
2019-04-06T08:47:59.267Z,2143.12
2019-04-06T08:48:59.271Z,1575.00
2019-04-06T08:49:59.241Z,1591.88
2019-04-06T08:50:59.237Z,1929.38
2019-04-06T08:51:59.387Z,1732.50
2019-04-06T08:52:59.216Z,1321.88
2019-04-06T08:53:59.197Z,1254.38
2019-04-06T08:54:59.203Z,1226.25
2019-04-06T08:55:59.177Z,2345.62
2019-04-06T08:56:59.165Z,1721.25
2019-04-06T08:57:59.174Z,1321.88
2019-04-06T08:59:10.145Z,1243.12
2019-04-06T09:00:00.267Z,1136.25
2019-04-06T09:00:59.120Z,1125.00
2019-04-06T09:01:59.113Z,1164.38
2019-04-06T09:02:59.341Z,1507.50
2019-04-06T09:03:59.088Z,2115.00
2019-04-06T09:04:59.076Z,2013.75
2019-04-06T09:05:59.085Z,1440.00
2019-04-06T09:06:59.056Z,1743.75
2019-04-06T09:07:59.044Z,1873.12
2019-04-06T09:08:59.032Z,1873.12
2019-04-06T09:09:59.021Z,1850.62
2019-04-06T09:10:59.009Z,1850.62
2019-04-06T09:11:59.018Z,1530.00
2019-04-06T09:12:58.990Z,1496.25
2019-04-06T09:13:58.992Z,1316.25
2019-04-06T09:14:59.027Z,1260.00
2019-04-06T09:15:58.971Z,1372.50
2019-04-06T09:16:59.232Z,1833.75
2019-04-06T09:17:58.983Z,1603.12
2019-04-06T09:18:58.925Z,2165.62
2019-04-06T09:19:59.066Z,1575.00
2019-04-06T09:20:59.317Z,1541.25
2019-04-06T09:21:58.932Z,1462.50
2019-04-06T09:22:58.884Z,1620.00
2019-04-06T09:23:59.304Z,2272.50
2019-04-06T09:24:59.223Z,2694.38
2019-04-06T09:25:59.631Z,2430.00
2019-04-06T09:26:58.832Z,2700.00
2019-04-06T09:27:58.971Z,3144.38
2019-04-06T09:28:59.720Z,2334.38
2019-04-06T09:29:58.823Z,2840.62
2019-04-06T09:30:58.792Z,2806.88
2019-04-06T09:31:58.776Z,2767.50
2019-04-06T09:32:58.772Z,3003.75
2019-04-06T09:33:58.815Z,3009.38
2019-04-06T09:34:58.776Z,3082.50
2019-04-06T09:35:58.782Z,2553.75
2019-04-06T09:36:58.724Z,2525.62
2019-04-06T09:37:58.813Z,2761.88
2019-04-06T09:38:58.701Z,3414.38
2019-04-06T09:39:58.696Z,3656.25
2019-04-06T09:40:58.720Z,3144.38
2019-04-06T09:41:58.691Z,3076.88
2019-04-06T09:42:58.865Z,2790.00
2019-04-06T09:43:58.647Z,3150.00
2019-04-06T09:44:58.639Z,2925.00
2019-04-06T09:45:58.625Z,2638.12
2019-04-06T09:46:58.615Z,3493.12
2019-04-06T09:47:58.621Z,3380.62
2019-04-06T09:48:58.603Z,3290.62
2019-04-06T09:49:58.584Z,3380.62
2019-04-06T09:50:58.571Z,3667.50
2019-04-06T09:51:58.561Z,3830.62
2019-04-06T09:52:58.684Z,3667.50
2019-04-06T09:54:05.639Z,3487.50
2019-04-06T09:54:59.744Z,3386.25
2019-04-06T09:55:58.520Z,3256.88
2019-04-06T09:56:58.509Z,3093.75
2019-04-06T09:57:58.497Z,2930.62
2019-04-06T09:58:58.643Z,2497.50
2019-04-06T09:59:58.491Z,2250.00
2019-04-06T10:00:58.460Z,2458.12
2019-04-06T10:01:58.455Z,2773.12
2019-04-06T10:02:58.440Z,2548.12
2019-04-06T10:03:58.544Z,2491.88
2019-04-06T10:04:58.419Z,2379.38
2019-04-06T10:05:58.565Z,3318.75
2019-04-06T10:06:58.401Z,3110.62
2019-04-06T10:07:58.387Z,3369.38
2019-04-06T10:08:58.680Z,3622.50
2019-04-06T10:09:58.964Z,3903.75
2019-04-06T10:10:58.354Z,3768.75
2019-04-06T10:11:58.361Z,3352.50
2019-04-06T10:12:58.332Z,2958.75
2019-04-06T10:13:58.603Z,3054.38
2019-04-06T10:14:58.312Z,3105.00
2019-04-06T10:15:58.304Z,3031.88
2019-04-06T10:16:58.303Z,2463.75
2019-04-06T10:17:58.300Z,2317.50
2019-04-06T10:18:58.269Z,2131.88
2019-04-06T10:19:58.261Z,2070.00
2019-04-06T10:20:58.527Z,1935.00
2019-04-06T10:21:58.338Z,2317.50
2019-04-06T10:22:58.333Z,2227.50
2019-04-06T10:23:58.230Z,1642.50
2019-04-06T10:24:58.201Z,1648.12
2019-04-06T10:25:58.192Z,1946.25
2019-04-06T10:26:58.373Z,2683.12
2019-04-06T10:27:58.336Z,2593.12
2019-04-06T10:28:58.159Z,3048.75
2019-04-06T10:29:58.240Z,3234.38
2019-04-06T10:30:58.140Z,3105.00
2019-04-06T10:31:58.130Z,3026.25
2019-04-06T10:32:58.117Z,1794.38
2019-04-06T10:33:58.104Z,1614.38
2019-04-06T10:34:58.178Z,1743.75
2019-04-06T10:35:58.099Z,1473.75
2019-04-06T10:36:58.076Z,1395.00
2019-04-06T10:37:58.102Z,1501.88
2019-04-06T10:38:58.053Z,1580.62
2019-04-06T10:39:58.357Z,1513.12
2019-04-06T10:40:58.027Z,1518.75
2019-04-06T10:41:58.033Z,1648.12
2019-04-06T10:42:58.005Z,1811.25
2019-04-06T10:43:57.998Z,1687.50
2019-04-06T10:44:58.078Z,1693.12
2019-04-06T10:45:57.973Z,1681.88
2019-04-06T10:46:57.960Z,2008.12
2019-04-06T10:47:58.081Z,2115.00
2019-04-06T10:48:57.944Z,2081.25
2019-04-06T10:49:58.222Z,2053.12
2019-04-06T10:50:57.921Z,1743.75
2019-04-06T10:51:57.912Z,1653.75
2019-04-06T10:52:57.899Z,1625.62
2019-04-06T10:53:57.906Z,1665.00
2019-04-06T10:54:58.115Z,1636.88
2019-04-06T10:55:58.125Z,1985.62
2019-04-06T10:56:57.852Z,1951.88
2019-04-06T10:57:58.104Z,2053.12
2019-04-06T10:58:58.096Z,2323.12
2019-04-06T11:00:01.445Z,2340.00
2019-04-06T11:00:59.086Z,2356.88
2019-04-06T11:01:57.860Z,2328.75
2019-04-06T11:02:57.789Z,2328.75
2019-04-06T11:03:57.785Z,2452.50
2019-04-06T11:04:57.913Z,2221.88
2019-04-06T11:05:57.771Z,2182.50
2019-04-06T11:06:57.747Z,2115.00
2019-04-06T11:07:57.744Z,1912.50
2019-04-06T11:08:57.730Z,1811.25
2019-04-06T11:09:57.714Z,1755.00
2019-04-06T11:10:57.922Z,1524.38
2019-04-06T11:11:57.777Z,1473.75
2019-04-06T11:12:57.676Z,1468.12
2019-04-06T11:13:57.671Z,1344.38
2019-04-06T11:14:57.872Z,1338.75
2019-04-06T11:15:57.641Z,1327.50
2019-04-06T11:16:57.741Z,1282.50
2019-04-06T11:17:57.646Z,1254.38
2019-04-06T11:18:57.614Z,1226.25
2019-04-06T11:19:57.614Z,1226.25
2019-04-06T11:20:57.733Z,1209.38
2019-04-06T11:21:57.576Z,1203.75
2019-04-06T11:22:57.568Z,1215.00
2019-04-06T11:23:57.602Z,1192.50
2019-04-06T11:24:57.547Z,1181.25
2019-04-06T11:25:57.534Z,1153.12
2019-04-06T11:26:57.525Z,1119.38
2019-04-06T11:27:57.514Z,1091.25
2019-04-06T11:28:57.503Z,1074.38
2019-04-06T11:29:57.505Z,1046.25
2019-04-06T11:30:57.479Z,1023.75
2019-04-06T11:31:57.466Z,1006.88
2019-04-06T11:32:57.457Z,1006.88
2019-04-06T11:33:57.444Z,1001.25
2019-04-06T11:34:57.480Z,1001.25
2019-04-06T11:35:57.463Z,1006.88
2019-04-06T11:36:57.414Z,1006.88
2019-04-06T11:37:57.664Z,1001.25
2019-04-06T11:38:57.394Z,1001.25
2019-04-06T11:39:57.380Z,995.62
2019-04-06T11:40:57.597Z,984.38
2019-04-06T11:41:57.367Z,967.50
2019-04-06T11:42:57.346Z,945.00
2019-04-06T11:43:57.386Z,933.75
2019-04-06T11:44:57.333Z,911.25
2019-04-06T11:45:57.312Z,894.38
2019-04-06T11:46:57.303Z,888.75
2019-04-06T11:47:57.313Z,877.50
2019-04-06T11:48:57.332Z,871.88
2019-04-06T11:49:57.271Z,866.25
2019-04-06T11:50:57.313Z,871.88
2019-04-06T11:51:57.257Z,871.88
2019-04-06T11:52:57.235Z,871.88
2019-04-06T11:53:57.246Z,877.50
2019-04-06T11:54:57.213Z,877.50
2019-04-06T11:55:57.203Z,883.12
2019-04-06T11:56:57.194Z,888.75
2019-04-06T11:57:57.712Z,888.75
2019-04-06T11:58:57.171Z,888.75
2019-04-06T11:59:57.627Z,888.75
2019-04-06T12:00:57.151Z,894.38
2019-04-06T12:01:57.241Z,911.25
2019-04-06T12:02:57.126Z,928.12
2019-04-06T12:03:57.117Z,961.88
2019-04-06T12:04:57.104Z,995.62
2019-04-06T12:05:57.107Z,1029.38
2019-04-06T12:06:57.085Z,1096.88
2019-04-06T12:07:57.072Z,1113.75
2019-04-06T12:08:57.351Z,1141.88
2019-04-06T12:09:57.049Z,1203.75
2019-04-06T12:10:57.043Z,1276.88
2019-04-06T12:11:57.057Z,1282.50
2019-04-06T12:12:57.019Z,1327.50
2019-04-06T12:13:57.007Z,1344.38
2019-04-06T12:14:56.995Z,1355.62
2019-04-06T12:15:56.985Z,1389.38
2019-04-06T12:16:56.976Z,1321.88
2019-04-06T12:17:56.975Z,1350.00
2019-04-06T12:18:57.151Z,1327.50
2019-04-06T12:19:56.941Z,1282.50
2019-04-06T12:20:56.945Z,1305.00
2019-04-06T12:21:57.118Z,1310.62
2019-04-06T12:22:56.910Z,1299.38
2019-04-06T12:23:56.990Z,1260.00
2019-04-06T12:24:56.884Z,1305.00
2019-04-06T12:25:56.992Z,1389.38
2019-04-06T12:26:56.862Z,1490.62
2019-04-06T12:27:56.852Z,1546.88
2019-04-06T12:28:56.844Z,1558.12
2019-04-06T12:29:56.979Z,1501.88
2019-04-06T12:30:57.077Z,1591.88
2019-04-06T12:31:56.808Z,1620.00
2019-04-06T12:32:57.126Z,1620.00
2019-04-06T12:33:56.788Z,1597.50
2019-04-06T12:34:56.775Z,1473.75
2019-04-06T12:35:56.778Z,1378.12
2019-04-06T12:36:56.938Z,1276.88
2019-04-06T12:37:57.012Z,1344.38
2019-04-06T12:38:56.730Z,1226.25
2019-04-06T12:39:56.963Z,1192.50
2019-04-06T12:40:56.714Z,1158.75
2019-04-06T12:41:57.041Z,1136.25
2019-04-06T12:42:56.685Z,1186.88